Time;durP1;ratioP1;P1;durP2;ratioP2;P2;SDS_P1;SDS_P2;PMS_P1;PMS_P2;Temp;Humidity;BMP_temperature;BMP_pressure;BME280_temperature;BME280_humidity;BME280_pressure;Samples;Min_cycle;Max_cycle;Signal;HPM_P1;HPM_P2
2023/06/08 00:01:58;;;;;;;6.45;3.00;;;;;;;;;;5047599;28;20082;-77
2023/06/08 00:04:30;;;;;;;4.50;2.80;;;;;;;;;;5047201;28;20104;-77
2023/06/08 00:06:56;;;;;;;5.57;2.88;;;;;;;;;;5047679;28;20021;-77
2023/06/08 00:09:21;;;;;;;6.57;3.05;;;;;;;;;;5048104;28;20025;-76
2023/06/08 00:11:48;;;;;;;5.88;3.20;;;;;;;;;;5047282;28;20028;-77
2023/06/08 00:14:13;;;;;;;6.55;2.80;;;;;;;;;;5047057;28;20027;-77
2023/06/08 00:16:39;;;;;;;5.75;2.80;;;;;;;;;;5046809;28;20016;-76
2023/06/08 00:19:07;;;;;;;4.78;2.70;;;;;;;;;;5047436;28;20115;-77
2023/06/08 00:21:33;;;;;;;5.28;2.80;;;;;;;;;;5047906;28;20025;-76
2023/06/08 00:23:59;;;;;;;5.63;2.83;;;;;;;;;;5047441;28;20115;-77
2023/06/08 00:26:26;;;;;;;6.63;2.63;;;;;;;;;;5046782;28;20029;-76
2023/06/08 00:28:51;;;;;;;4.00;2.50;;;;;;;;;;5046987;28;20127;-76
2023/06/08 00:31:17;;;;;;;5.13;2.70;;;;;;;;;;5046729;28;20096;-76
2023/06/08 00:33:43;;;;;;;3.97;2.70;;;;;;;;;;5047294;28;20558;-77
2023/06/08 00:36:09;;;;;;;4.35;2.70;;;;;;;;;;5047042;28;20029;-77
2023/06/08 00:38:34;;;;;;;5.57;2.83;;;;;;;;;;5047433;28;20526;-77
2023/06/08 00:41:01;;;;;;;3.65;2.75;;;;;;;;;;5047350;28;20029;-77
2023/06/08 00:43:26;;;;;;;6.20;2.67;;;;;;;;;;5045658;28;20025;-77
2023/06/08 00:45:54;;;;;;;4.43;2.63;;;;;;;;;;5046846;28;20075;-77
2023/06/08 00:48:20;;;;;;;4.45;2.60;;;;;;;;;;5046758;28;20060;-76
2023/06/08 00:50:46;;;;;;;5.55;2.30;;;;;;;;;;5047205;28;20057;-77
2023/06/08 00:53:13;;;;;;;7.15;3.13;;;;;;;;;;5047532;28;20099;-76
2023/06/08 00:55:39;;;;;;;4.75;2.63;;;;;;;;;;5046646;28;20107;-76
2023/06/08 00:58:11;;;;;;;4.50;2.90;;;;;;;;;;5046994;28;20025;-77
2023/06/08 01:00:37;;;;;;;5.18;2.70;;;;;;;;;;5047025;28;20022;-77
2023/06/08 01:03:03;;;;;;;6.30;2.85;;;;;;;;;;5047367;28;20028;-76
2023/06/08 01:05:28;;;;;;;5.00;2.63;;;;;;;;;;5046589;28;20040;-76
2023/06/08 01:08:25;;;;;;;6.25;2.75;;;;;;;;;;5046464;28;20021;-77
2023/06/08 01:11:11;;;;;;;6.38;2.80;;;;;;;;;;5047015;28;20084;-77
2023/06/08 01:13:39;;;;;;;4.38;2.60;;;;;;;;;;5046833;28;20456;-77
2023/06/08 01:16:10;;;;;;;5.13;2.85;;;;;;;;;;5046372;28;20052;-77
2023/06/08 01:18:38;;;;;;;7.70;2.85;;;;;;;;;;5050859;28;20098;-76
2023/06/08 01:21:58;;;;;;;5.88;2.80;;;;;;;;;;5050026;28;20024;-76
2023/06/08 01:24:30;;;;;;;6.57;2.65;;;;;;;;;;5050068;28;20036;-77
2023/06/08 01:26:57;;;;;;;4.88;2.72;;;;;;;;;;5050017;28;20033;-77
2023/06/08 01:29:25;;;;;;;6.93;3.00;;;;;;;;;;5050656;28;20086;-76
2023/06/08 01:31:51;;;;;;;3.83;2.80;;;;;;;;;;5048955;28;20032;-76
2023/06/08 01:34:17;;;;;;;5.00;2.97;;;;;;;;;;5050453;28;20028;-76
2023/06/08 01:37:04;;;;;;;4.53;2.70;;;;;;;;;;5049546;28;20025;-76
2023/06/08 01:39:48;;;;;;;8.18;2.90;;;;;;;;;;5049701;28;20114;-77
2023/06/08 01:42:21;;;;;;;6.80;2.72;;;;;;;;;;5049734;28;20033;-76
2023/06/08 01:44:56;;;;;;;5.03;2.78;;;;;;;;;;5049729;28;20417;-77
2023/06/08 01:47:24;;;;;;;3.92;2.80;;;;;;;;;;5049714;28;20030;-77
2023/06/08 01:49:54;;;;;;;4.70;2.70;;;;;;;;;;5050264;28;20515;-77
2023/06/08 01:52:20;;;;;;;5.10;2.90;;;;;;;;;;5049566;28;20369;-77
2023/06/08 01:54:46;;;;;;;5.82;2.78;;;;;;;;;;5049621;28;20028;-77
2023/06/08 01:57:11;;;;;;;5.05;2.78;;;;;;;;;;5049813;28;20025;-77
2023/06/08 01:59:36;;;;;;;3.92;2.70;;;;;;;;;;5049818;28;20052;-76
2023/06/08 02:02:02;;;;;;;6.13;3.22;;;;;;;;;;5049210;28;20036;-76
2023/06/08 02:04:27;;;;;;;6.60;2.95;;;;;;;;;;5048300;28;20074;-76
2023/06/08 02:06:53;;;;;;;5.82;2.63;;;;;;;;;;5048950;28;20028;-76
2023/06/08 02:09:19;;;;;;;4.10;2.90;;;;;;;;;;5050214;28;20029;-77
2023/06/08 02:11:44;;;;;;;7.30;3.03;;;;;;;;;;5048481;28;20036;-76
2023/06/08 02:14:10;;;;;;;5.65;2.67;;;;;;;;;;5049919;28;20519;-77
2023/06/08 02:16:38;;;;;;;8.00;2.90;;;;;;;;;;5049538;28;20033;-76
2023/06/08 02:19:04;;;;;;;3.88;2.75;;;;;;;;;;5048943;28;20028;-76
2023/06/08 02:21:29;;;;;;;4.82;2.78;;;;;;;;;;5047394;28;20063;-76
2023/06/08 02:23:54;;;;;;;4.90;2.90;;;;;;;;;;5049351;28;20029;-77
2023/06/08 02:26:22;;;;;;;3.97;2.67;;;;;;;;;;5047806;28;20032;-76
2023/06/08 02:28:47;;;;;;;4.13;2.58;;;;;;;;;;5048608;28;20029;-76
2023/06/08 02:31:13;;;;;;;4.32;2.35;;;;;;;;;;5048906;28;20044;-76
2023/06/08 02:33:38;;;;;;;5.03;2.90;;;;;;;;;;5049003;28;20112;-77
2023/06/08 02:36:04;;;;;;;4.97;2.85;;;;;;;;;;5048604;28;20037;-77
2023/06/08 02:38:30;;;;;;;4.30;2.80;;;;;;;;;;5048319;28;20029;-77
2023/06/08 02:40:55;;;;;;;5.05;2.72;;;;;;;;;;5049784;28;20023;-77
2023/06/08 02:43:21;;;;;;;5.63;2.60;;;;;;;;;;5049229;28;20028;-76
2023/06/08 02:45:46;;;;;;;7.32;3.00;;;;;;;;;;5049347;28;20029;-77
2023/06/08 02:48:12;;;;;;;5.40;2.80;;;;;;;;;;5048303;28;20112;-76
2023/06/08 02:50:37;;;;;;;4.78;2.63;;;;;;;;;;5048703;28;20045;-77
2023/06/08 02:53:02;;;;;;;4.28;2.95;;;;;;;;;;5046430;28;20033;-77
2023/06/08 02:55:36;;;;;;;5.43;2.90;;;;;;;;;;5048563;28;20535;-76
2023/06/08 02:58:03;;;;;;;5.32;2.92;;;;;;;;;;5048893;28;20032;-77
2023/06/08 03:00:30;;;;;;;3.97;3.00;;;;;;;;;;5049060;28;20025;-77
2023/06/08 03:02:59;;;;;;;8.82;3.35;;;;;;;;;;5047037;28;20059;-77
2023/06/08 03:05:24;;;;;;;4.75;3.05;;;;;;;;;;5048246;28;20063;-77
2023/06/08 03:07:52;;;;;;;4.35;2.90;;;;;;;;;;5047947;28;20088;-76
2023/06/08 03:10:18;;;;;;;4.25;2.72;;;;;;;;;;5048268;28;20392;-77
2023/06/08 03:12:44;;;;;;;4.60;2.85;;;;;;;;;;5048004;28;20481;-77
2023/06/08 03:15:10;;;;;;;5.03;3.00;;;;;;;;;;5048064;28;20100;-76
2023/06/08 03:17:36;;;;;;;5.88;2.90;;;;;;;;;;5047864;28;20037;-77
2023/06/08 03:20:02;;;;;;;6.93;3.03;;;;;;;;;;5049192;28;20025;-76
2023/06/08 03:22:29;;;;;;;3.97;2.80;;;;;;;;;;5048696;28;20119;-77
2023/06/08 03:24:58;;;;;;;5.95;2.90;;;;;;;;;;5048107;28;20113;-77
2023/06/08 03:27:23;;;;;;;5.65;3.00;;;;;;;;;;5047443;28;20120;-77
2023/06/08 03:29:49;;;;;;;5.82;2.83;;;;;;;;;;5047023;28;20120;-76
2023/06/08 03:32:15;;;;;;;5.28;3.10;;;;;;;;;;5047576;28;20032;-76
2023/06/08 03:34:40;;;;;;;3.50;2.92;;;;;;;;;;5047738;28;20029;-77
2023/06/08 03:37:06;;;;;;;4.88;2.97;;;;;;;;;;5047489;28;20029;-77
2023/06/08 03:39:31;;;;;;;7.55;2.92;;;;;;;;;;5046922;28;20052;-76
2023/06/08 03:41:57;;;;;;;4.15;2.95;;;;;;;;;;5048164;28;20167;-77
2023/06/08 03:44:22;;;;;;;5.45;2.90;;;;;;;;;;5048052;28;20032;-77
2023/06/08 03:46:48;;;;;;;8.00;3.17;;;;;;;;;;5048084;28;20448;-76
2023/06/08 03:49:13;;;;;;;4.50;2.95;;;;;;;;;;5047396;28;20073;-76
2023/06/08 03:51:39;;;;;;;4.45;2.95;;;;;;;;;;5047828;28;20425;-76
2023/06/08 03:54:05;;;;;;;5.50;3.22;;;;;;;;;;5047598;28;20064;-76
2023/06/08 03:56:30;;;;;;;4.70;3.33;;;;;;;;;;5047330;28;20409;-76
2023/06/08 03:58:56;;;;;;;7.00;3.30;;;;;;;;;;5047224;28;20025;-77
2023/06/08 04:01:22;;;;;;;5.25;3.08;;;;;;;;;;5045912;28;20074;-76
2023/06/08 04:03:47;;;;;;;6.75;3.60;;;;;;;;;;5047132;28;20017;-76
2023/06/08 04:06:16;;;;;;;5.88;3.38;;;;;;;;;;5047066;28;20056;-76
2023/06/08 04:08:44;;;;;;;7.35;3.55;;;;;;;;;;5045907;28;20055;-76
2023/06/08 04:11:10;;;;;;;3.88;3.03;;;;;;;;;;5048254;28;20028;-75
2023/06/08 04:13:36;;;;;;;4.45;3.28;;;;;;;;;;5047654;28;20024;-77
2023/06/08 04:16:08;;;;;;;5.45;3.38;;;;;;;;;;5047269;28;20480;-77
2023/06/08 04:18:35;;;;;;;5.88;3.33;;;;;;;;;;5047315;28;20025;-76
2023/06/08 04:21:01;;;;;;;4.00;2.67;;;;;;;;;;5045817;28;20021;-76
2023/06/08 04:23:30;;;;;;;6.07;3.40;;;;;;;;;;5046816;28;20112;-77
2023/06/08 04:25:56;;;;;;;5.40;3.00;;;;;;;;;;5047664;28;20044;-77
2023/06/08 04:28:24;;;;;;;6.93;3.40;;;;;;;;;;5046950;28;20481;-77
2023/06/08 04:30:49;;;;;;;5.10;3.20;;;;;;;;;;5047112;28;20040;-76
2023/06/08 04:33:16;;;;;;;5.68;3.33;;;;;;;;;;5046867;28;20401;-76
2023/06/08 04:35:42;;;;;;;5.72;3.20;;;;;;;;;;5047189;28;20028;-76
2023/06/08 04:38:14;;;;;;;9.27;3.67;;;;;;;;;;5046214;28;20024;-75
2023/06/08 04:40:47;;;;;;;4.97;2.92;;;;;;;;;;5047512;28;20071;-76
2023/06/08 04:43:13;;;;;;;8.13;3.38;;;;;;;;;;5046859;28;20108;-77
2023/06/08 04:45:42;;;;;;;5.20;3.72;;;;;;;;;;5047122;28;20130;-76
2023/06/08 04:48:09;;;;;;;7.30;3.55;;;;;;;;;;5046656;28;20017;-76
2023/06/08 04:50:34;;;;;;;4.25;3.20;;;;;;;;;;5047494;28;20487;-77
2023/06/08 04:53:01;;;;;;;5.63;3.38;;;;;;;;;;5051159;28;20029;-76
2023/06/08 04:55:27;;;;;;;9.48;3.63;;;;;;;;;;5051232;28;20021;-76
2023/06/08 04:57:52;;;;;;;5.97;3.70;;;;;;;;;;5051262;28;20573;-76
2023/06/08 05:00:18;;;;;;;7.00;3.58;;;;;;;;;;5051127;28;20024;-75
2023/06/08 05:02:44;;;;;;;4.57;3.17;;;;;;;;;;5050719;28;20196;-76
2023/06/08 05:05:09;;;;;;;5.35;3.63;;;;;;;;;;5050500;28;20602;-75
2023/06/08 05:07:35;;;;;;;6.78;3.35;;;;;;;;;;5050997;28;20025;-76
2023/06/08 05:10:01;;;;;;;5.25;3.50;;;;;;;;;;5050461;28;20412;-76
2023/06/08 05:12:27;;;;;;;5.97;3.55;;;;;;;;;;5050383;28;20021;-75
2023/06/08 05:14:54;;;;;;;5.85;3.70;;;;;;;;;;5049898;28;20100;-76
2023/06/08 05:17:21;;;;;;;6.65;3.38;;;;;;;;;;5050469;28;20045;-76
2023/06/08 05:19:47;;;;;;;8.55;3.55;;;;;;;;;;5050921;28;20029;-76
2023/06/08 05:22:12;;;;;;;5.15;3.40;;;;;;;;;;5049837;28;20070;-76
2023/06/08 05:24:38;;;;;;;5.30;3.38;;;;;;;;;;5049927;28;20066;-76
2023/06/08 05:27:03;;;;;;;7.18;3.38;;;;;;;;;;5050019;28;20017;-76
2023/06/08 05:29:29;;;;;;;5.80;3.03;;;;;;;;;;5049778;28;20056;-75
2023/06/08 05:31:54;;;;;;;7.07;3.70;;;;;;;;;;5048929;28;20033;-76
2023/06/08 05:34:20;;;;;;;3.90;3.28;;;;;;;;;;5050527;28;20384;-76
2023/06/08 05:36:45;;;;;;;5.68;3.30;;;;;;;;;;5050053;28;20505;-76
2023/06/08 05:39:11;;;;;;;6.00;3.72;;;;;;;;;;5050787;28;20056;-76
2023/06/08 05:41:36;;;;;;;6.40;3.35;;;;;;;;;;5050460;28;20025;-76
2023/06/08 05:44:01;;;;;;;5.53;3.40;;;;;;;;;;5049738;28;20029;-76
2023/06/08 05:46:27;;;;;;;11.38;3.22;;;;;;;;;;5050229;28;20108;-76
2023/06/08 05:48:52;;;;;;;6.13;3.40;;;;;;;;;;5049498;28;20025;-76
2023/06/08 05:51:18;;;;;;;9.85;3.50;;;;;;;;;;5049392;28;20025;-75
2023/06/08 05:53:43;;;;;;;6.97;3.20;;;;;;;;;;5049499;28;20071;-76
2023/06/08 05:56:09;;;;;;;6.78;3.42;;;;;;;;;;5049730;28;20519;-75
2023/06/08 05:58:34;;;;;;;4.57;3.35;;;;;;;;;;5049784;28;20063;-76
2023/06/08 06:01:03;;;;;;;7.90;3.40;;;;;;;;;;5048680;28;20037;-76
2023/06/08 06:03:29;;;;;;;6.10;3.53;;;;;;;;;;5048695;28;20562;-76
2023/06/08 06:05:58;;;;;;;4.70;3.20;;;;;;;;;;5049098;28;20029;-76
2023/06/08 06:08:24;;;;;;;5.25;3.30;;;;;;;;;;5048936;28;20025;-76
2023/06/08 06:10:49;;;;;;;5.65;3.20;;;;;;;;;;5049069;28;20036;-76
2023/06/08 06:13:15;;;;;;;6.50;3.40;;;;;;;;;;5049932;28;20029;-76
2023/06/08 06:15:40;;;;;;;5.20;3.47;;;;;;;;;;5050019;28;20427;-76
2023/06/08 06:18:06;;;;;;;5.07;3.40;;;;;;;;;;5049714;28;20511;-76
2023/06/08 06:20:31;;;;;;;6.00;3.17;;;;;;;;;;5048977;28;20074;-76
2023/06/08 06:22:57;;;;;;;5.20;3.10;;;;;;;;;;5048721;28;20032;-76
2023/06/08 06:25:22;;;;;;;7.93;3.40;;;;;;;;;;5049289;28;20032;-76
2023/06/08 06:27:48;;;;;;;4.13;3.03;;;;;;;;;;5048733;28;20400;-76
2023/06/08 06:30:14;;;;;;;5.47;3.08;;;;;;;;;;5048691;28;20112;-75
2023/06/08 06:32:40;;;;;;;4.88;3.33;;;;;;;;;;5049524;28;20140;-76
2023/06/08 06:35:06;;;;;;;6.30;3.35;;;;;;;;;;5050246;28;20052;-76
2023/06/08 06:37:34;;;;;;;5.45;3.58;;;;;;;;;;5047775;28;20033;-76
2023/06/08 06:40:06;;;;;;;5.10;3.45;;;;;;;;;;5048582;28;20121;-77
2023/06/08 06:42:32;;;;;;;4.00;3.20;;;;;;;;;;5048664;28;20032;-77
2023/06/08 06:44:58;;;;;;;5.65;3.20;;;;;;;;;;5048343;28;20043;-76
2023/06/08 06:47:24;;;;;;;6.97;3.45;;;;;;;;;;5048575;28;20024;-76
2023/06/08 06:49:50;;;;;;;6.32;3.15;;;;;;;;;;5048386;28;20029;-76
2023/06/08 06:52:15;;;;;;;9.35;3.40;;;;;;;;;;5048067;28;20191;-76
2023/06/08 06:54:40;;;;;;;4.22;3.00;;;;;;;;;;5048611;28;20078;-76
2023/06/08 06:57:07;;;;;;;5.70;3.08;;;;;;;;;;5048759;28;20017;-76
2023/06/08 06:59:33;;;;;;;5.78;3.00;;;;;;;;;;5048482;28;20115;-75
2023/06/08 07:01:59;;;;;;;7.90;3.53;;;;;;;;;;5048293;28;20025;-76
2023/06/08 07:04:25;;;;;;;5.57;3.15;;;;;;;;;;5048586;28;20017;-76
2023/06/08 07:06:52;;;;;;;5.72;2.97;;;;;;;;;;5048813;28;20074;-75
2023/06/08 07:09:21;;;;;;;6.20;3.40;;;;;;;;;;5048829;28;20029;-76
2023/06/08 07:11:47;;;;;;;7.35;3.33;;;;;;;;;;5048332;28;20031;-76
2023/06/08 07:14:12;;;;;;;6.75;3.45;;;;;;;;;;5047932;28;20025;-76
2023/06/08 07:16:38;;;;;;;5.47;3.17;;;;;;;;;;5047801;28;20036;-76
2023/06/08 07:19:03;;;;;;;7.05;3.40;;;;;;;;;;5048056;28;20104;-75
2023/06/08 07:21:30;;;;;;;4.90;3.28;;;;;;;;;;5046384;28;20040;-76
2023/06/08 07:23:57;;;;;;;7.90;3.20;;;;;;;;;;5048228;28;20098;-76
2023/06/08 07:26:23;;;;;;;7.50;3.03;;;;;;;;;;5047735;28;20032;-76
2023/06/08 07:28:52;;;;;;;6.13;3.03;;;;;;;;;;5048099;28;20032;-77
2023/06/08 07:31:17;;;;;;;5.68;2.97;;;;;;;;;;5048043;28;20029;-76
2023/06/08 07:33:42;;;;;;;5.22;3.00;;;;;;;;;;5047668;28;20039;-76
2023/06/08 07:36:08;;;;;;;4.47;2.80;;;;;;;;;;5047630;28;20032;-76
2023/06/08 07:38:33;;;;;;;4.28;3.10;;;;;;;;;;5047679;28;20033;-76
2023/06/08 07:40:59;;;;;;;8.90;2.85;;;;;;;;;;5048209;28;20053;-76
2023/06/08 07:43:26;;;;;;;6.13;3.33;;;;;;;;;;5048361;28;20049;-76
2023/06/08 07:45:51;;;;;;;4.32;2.97;;;;;;;;;;5048026;28;20029;-76
2023/06/08 07:48:16;;;;;;;6.30;3.20;;;;;;;;;;5048119;28;20203;-76
2023/06/08 07:50:42;;;;;;;5.35;3.20;;;;;;;;;;5046280;28;20025;-77
2023/06/08 07:53:07;;;;;;;6.20;2.80;;;;;;;;;;5047201;28;20641;-76
2023/06/08 07:55:33;;;;;;;5.72;2.88;;;;;;;;;;5047607;28;20028;-75
2023/06/08 07:57:58;;;;;;;5.63;2.80;;;;;;;;;;5047561;28;20028;-76
2023/06/08 08:00:25;;;;;;;8.05;3.00;;;;;;;;;;5048207;28;20154;-76
2023/06/08 08:02:51;;;;;;;5.00;2.40;;;;;;;;;;5048523;28;20029;-76
2023/06/08 08:05:16;;;;;;;5.47;2.60;;;;;;;;;;5046439;28;20147;-76
2023/06/08 08:07:42;;;;;;;7.15;2.67;;;;;;;;;;5047769;28;20025;-75
2023/06/08 08:10:08;;;;;;;4.15;2.65;;;;;;;;;;5047238;28;20021;-76
2023/06/08 08:12:33;;;;;;;6.75;2.60;;;;;;;;;;5047295;28;20071;-76
2023/06/08 08:14:58;;;;;;;6.63;2.80;;;;;;;;;;5047096;28;20040;-76
2023/06/08 08:17:24;;;;;;;6.07;3.00;;;;;;;;;;5047734;28;20117;-76
2023/06/08 08:19:49;;;;;;;7.65;2.55;;;;;;;;;;5047793;28;20063;-77
2023/06/08 08:22:15;;;;;;;4.32;2.30;;;;;;;;;;5046999;28;20124;-76
2023/06/08 08:24:40;;;;;;;5.30;2.45;;;;;;;;;;5047454;28;20495;-76
2023/06/08 08:27:06;;;;;;;6.18;2.70;;;;;;;;;;5050174;28;20051;-75
2023/06/08 08:29:31;;;;;;;6.28;2.78;;;;;;;;;;5049629;28;20464;-77
2023/06/08 08:31:57;;;;;;;4.00;2.53;;;;;;;;;;5051050;28;20025;-76
2023/06/08 08:34:22;;;;;;;4.82;2.70;;;;;;;;;;5051392;28;20029;-76
2023/06/08 08:36:47;;;;;;;4.38;2.50;;;;;;;;;;5050643;28;20146;-76
2023/06/08 08:39:14;;;;;;;4.25;2.92;;;;;;;;;;5050810;28;20041;-76
2023/06/08 08:41:41;;;;;;;6.38;2.60;;;;;;;;;;5050832;28;20028;-76
2023/06/08 08:44:13;;;;;;;5.45;2.83;;;;;;;;;;5051552;28;20029;-76
2023/06/08 08:46:42;;;;;;;14.20;2.85;;;;;;;;;;5049295;28;20029;-76
2023/06/08 08:49:16;;;;;;;4.65;2.70;;;;;;;;;;5050476;28;20025;-76
2023/06/08 08:51:52;;;;;;;4.70;2.75;;;;;;;;;;5050573;28;20029;-76
2023/06/08 08:54:18;;;;;;;4.50;2.35;;;;;;;;;;5051490;28;20036;-76
2023/06/08 08:56:44;;;;;;;5.80;2.70;;;;;;;;;;5049868;28;20058;-76
2023/06/08 08:59:10;;;;;;;8.63;3.03;;;;;;;;;;5051413;28;20501;-76
2023/06/08 09:01:39;;;;;;;7.43;2.60;;;;;;;;;;5051029;28;20378;-76
2023/06/08 09:04:05;;;;;;;5.03;2.80;;;;;;;;;;5050783;28;20025;-75
2023/06/08 09:06:30;;;;;;;4.57;2.58;;;;;;;;;;5048523;28;20033;-76
2023/06/08 09:08:56;;;;;;;4.18;2.80;;;;;;;;;;5050560;28;20489;-76
2023/06/08 09:11:21;;;;;;;6.22;2.90;;;;;;;;;;5050725;28;20021;-76
2023/06/08 09:13:47;;;;;;;4.35;2.83;;;;;;;;;;5051135;28;20021;-76
2023/06/08 09:16:19;;;;;;;4.35;2.80;;;;;;;;;;5050942;28;20033;-76
2023/06/08 09:18:46;;;;;;;3.97;2.63;;;;;;;;;;5050795;28;20025;-76
2023/06/08 09:21:28;;;;;;;4.85;2.55;;;;;;;;;;5050673;28;20063;-76
2023/06/08 09:24:04;;;;;;;6.63;2.60;;;;;;;;;;5051869;28;20177;-77
2023/06/08 09:26:32;;;;;;;5.30;2.65;;;;;;;;;;5050985;28;20260;-75
2023/06/08 09:28:57;;;;;;;4.70;2.70;;;;;;;;;;5050810;28;20492;-76
2023/06/08 09:31:23;;;;;;;6.15;2.78;;;;;;;;;;5050152;28;20032;-76
2023/06/08 09:33:48;;;;;;;3.38;2.80;;;;;;;;;;5050031;28;20063;-76
2023/06/08 09:36:16;;;;;;;4.03;2.60;;;;;;;;;;5049699;28;20117;-76
2023/06/08 09:38:42;;;;;;;5.88;2.45;;;;;;;;;;5048007;28;20066;-76
2023/06/08 09:41:22;;;;;;;4.43;2.40;;;;;;;;;;5050090;28;20118;-76
2023/06/08 09:43:49;;;;;;;6.43;2.75;;;;;;;;;;5050495;28;20028;-76
2023/06/08 09:46:40;;;;;;;4.85;2.70;;;;;;;;;;5049698;28;20029;-76
2023/06/08 09:49:07;;;;;;;4.20;2.78;;;;;;;;;;5048442;28;20555;-76
2023/06/08 09:51:35;;;;;;;5.10;2.40;;;;;;;;;;5049356;28;20024;-75
2023/06/08 09:54:01;;;;;;;4.32;2.90;;;;;;;;;;5049987;28;20043;-76
2023/06/08 09:56:28;;;;;;;3.15;2.40;;;;;;;;;;5050093;28;20021;-76
2023/06/08 09:58:57;;;;;;;5.18;2.50;;;;;;;;;;5050104;28;20086;-76
2023/06/08 10:01:40;;;;;;;4.85;2.50;;;;;;;;;;5049933;28;20437;-76
2023/06/08 10:04:22;;;;;;;6.63;2.72;;;;;;;;;;5049993;28;20179;-75
2023/06/08 10:06:55;;;;;;;5.45;2.63;;;;;;;;;;5049254;28;20095;-75
2023/06/08 10:09:27;;;;;;;5.57;2.80;;;;;;;;;;5049418;28;20021;-76
2023/06/08 10:11:54;;;;;;;4.18;2.40;;;;;;;;;;5049867;28;20083;-76
2023/06/08 10:14:20;;;;;;;3.58;2.28;;;;;;;;;;5049888;28;20148;-76
2023/06/08 10:16:47;;;;;;;3.90;2.47;;;;;;;;;;5049467;28;20112;-76
2023/06/08 10:19:13;;;;;;;5.63;2.47;;;;;;;;;;5049293;28;20579;-76
2023/06/08 10:21:39;;;;;;;5.60;2.47;;;;;;;;;;5047239;28;20146;-76
2023/06/08 10:24:05;;;;;;;5.65;2.40;;;;;;;;;;5048936;28;20048;-76
2023/06/08 10:26:31;;;;;;;3.53;2.47;;;;;;;;;;5049132;28;20500;-76
2023/06/08 10:29:07;;;;;;;6.05;2.38;;;;;;;;;;5050274;28;20025;-76
2023/06/08 10:31:37;;;;;;;4.90;2.28;;;;;;;;;;5048572;28;20106;-76
2023/06/08 10:34:11;;;;;;;5.70;2.40;;;;;;;;;;5049574;28;20140;-76
2023/06/08 10:36:39;;;;;;;4.65;2.20;;;;;;;;;;5048455;28;20108;-77
2023/06/08 10:39:16;;;;;;;7.57;2.40;;;;;;;;;;5047192;28;20051;-76
2023/06/08 10:41:58;;;;;;;5.55;2.22;;;;;;;;;;5048672;28;20025;-76
2023/06/08 10:44:31;;;;;;;8.90;2.63;;;;;;;;;;5049374;28;20071;-76
2023/06/08 10:46:59;;;;;;;2.80;2.10;;;;;;;;;;5048622;28;20024;-76
2023/06/08 10:49:29;;;;;;;3.97;2.30;;;;;;;;;;5048320;28;20125;-76
2023/06/08 10:51:55;;;;;;;4.03;2.30;;;;;;;;;;5048394;28;20497;-76
2023/06/08 10:54:22;;;;;;;3.80;2.00;;;;;;;;;;5047351;28;20068;-76
2023/06/08 10:56:52;;;;;;;3.10;1.90;;;;;;;;;;5048321;28;20033;-76
2023/06/08 10:59:37;;;;;;;5.90;2.30;;;;;;;;;;5048672;28;20064;-76
2023/06/08 11:02:04;;;;;;;4.47;2.00;;;;;;;;;;5048720;28;20035;-76
2023/06/08 11:04:34;;;;;;;8.85;2.20;;;;;;;;;;5049198;28;20105;-76
2023/06/08 11:07:08;;;;;;;6.88;2.22;;;;;;;;;;5047914;28;20032;-76
2023/06/08 11:09:36;;;;;;;3.75;2.30;;;;;;;;;;5048216;28;20044;-76
2023/06/08 11:12:05;;;;;;;5.13;2.40;;;;;;;;;;5047285;28;20090;-76
2023/06/08 11:14:31;;;;;;;6.05;2.38;;;;;;;;;;5048953;28;20397;-75
2023/06/08 11:16:56;;;;;;;4.78;2.38;;;;;;;;;;5048664;28;20025;-76
2023/06/08 11:19:23;;;;;;;4.75;2.10;;;;;;;;;;5048543;28;20847;-76
2023/06/08 11:21:53;;;;;;;4.30;2.28;;;;;;;;;;5047600;28;20104;-76
2023/06/08 11:24:19;;;;;;;3.25;2.10;;;;;;;;;;5046558;28;20067;-76
2023/06/08 11:26:45;;;;;;;5.18;2.13;;;;;;;;;;5047662;28;20054;-76
2023/06/08 11:29:11;;;;;;;3.50;2.30;;;;;;;;;;5047529;28;20025;-76
2023/06/08 11:31:40;;;;;;;5.50;2.40;;;;;;;;;;5048300;28;20485;-76
2023/06/08 11:34:12;;;;;;;4.60;2.60;;;;;;;;;;5048659;28;20036;-76
2023/06/08 11:36:38;;;;;;;3.45;2.10;;;;;;;;;;5048753;28;20048;-75
2023/06/08 11:39:06;;;;;;;4.07;2.35;;;;;;;;;;5047109;28;20052;-75
2023/06/08 11:41:32;;;;;;;4.70;2.33;;;;;;;;;;5047482;28;20029;-76
2023/06/08 11:43:57;;;;;;;5.43;2.35;;;;;;;;;;5047513;28;20408;-76
2023/06/08 11:46:24;;;;;;;8.80;2.40;;;;;;;;;;5047528;28;20573;-75
2023/06/08 11:48:49;;;;;;;4.60;2.22;;;;;;;;;;5047353;28;20025;-76
2023/06/08 11:51:18;;;;;;;6.32;2.42;;;;;;;;;;5047447;28;20021;-76
2023/06/08 11:53:46;;;;;;;3.30;2.17;;;;;;;;;;5047530;28;20037;-75
2023/06/08 11:56:12;;;;;;;6.28;2.38;;;;;;;;;;5048005;28;20416;-76
2023/06/08 11:58:39;;;;;;;3.80;2.40;;;;;;;;;;5046158;28;20029;-76
2023/06/08 12:01:07;;;;;;;5.93;2.20;;;;;;;;;;5046534;28;20355;-75
2023/06/08 12:03:41;;;;;;;3.70;2.47;;;;;;;;;;5047599;28;20519;-76
2023/06/08 12:06:06;;;;;;;6.22;2.30;;;;;;;;;;5048096;28;20028;-75
2023/06/08 12:08:33;;;;;;;3.35;2.47;;;;;;;;;;5047930;28;20025;-76
2023/06/08 12:11:08;;;;;;;4.00;2.50;;;;;;;;;;5048470;28;20057;-75
2023/06/08 12:13:33;;;;;;;2.92;2.15;;;;;;;;;;5047946;28;20060;-76
2023/06/08 12:15:59;;;;;;;6.20;2.67;;;;;;;;;;5046362;28;20567;-76
2023/06/08 12:18:24;;;;;;;4.45;2.50;;;;;;;;;;5047154;28;20388;-75
2023/06/08 12:20:53;;;;;;;5.22;2.38;;;;;;;;;;5047802;28;20559;-76
2023/06/08 12:23:19;;;;;;;4.82;2.70;;;;;;;;;;5046468;28;20083;-75
2023/06/08 12:25:45;;;;;;;3.72;2.33;;;;;;;;;;5047239;28;20104;-76
2023/06/08 12:28:24;;;;;;;4.88;2.40;;;;;;;;;;5047381;28;20456;-76
2023/06/08 12:30:51;;;;;;;6.47;2.63;;;;;;;;;;5047743;28;20040;-76
2023/06/08 12:33:18;;;;;;;4.68;2.50;;;;;;;;;;5046216;28;20039;-75
2023/06/08 12:35:54;;;;;;;3.38;2.42;;;;;;;;;;5047786;28;20072;-75
2023/06/08 12:38:23;;;;;;;3.53;2.33;;;;;;;;;;5047514;28;20033;-76
2023/06/08 12:40:51;;;;;;;3.22;2.28;;;;;;;;;;5047558;28;20515;-76
2023/06/08 12:43:21;;;;;;;5.00;2.67;;;;;;;;;;5047169;28;20086;-76
2023/06/08 12:45:47;;;;;;;4.55;2.35;;;;;;;;;;5046954;28;20032;-75
2023/06/08 12:48:13;;;;;;;6.00;2.70;;;;;;;;;;5047032;28;20037;-76
2023/06/08 12:50:39;;;;;;;3.92;2.50;;;;;;;;;;5047438;28;20056;-75
2023/06/08 12:53:05;;;;;;;4.68;2.75;;;;;;;;;;5047534;28;20488;-76
2023/06/08 12:55:31;;;;;;;7.35;2.70;;;;;;;;;;5047553;28;20493;-76
2023/06/08 12:57:56;;;;;;;4.75;2.60;;;;;;;;;;5048260;28;20037;-76
2023/06/08 13:00:22;;;;;;;5.38;2.78;;;;;;;;;;5045678;28;20536;-75
2023/06/08 13:02:49;;;;;;;4.97;2.97;;;;;;;;;;5047143;28;20680;-75
2023/06/08 13:05:14;;;;;;;5.63;2.88;;;;;;;;;;5047550;28;20509;-76
2023/06/08 13:07:40;;;;;;;4.80;2.67;;;;;;;;;;5047722;28;20055;-75
2023/06/08 13:10:06;;;;;;;5.43;2.80;;;;;;;;;;5047131;28;20056;-75
2023/06/08 13:12:31;;;;;;;8.05;2.70;;;;;;;;;;5048885;28;20060;-76
2023/06/08 13:14:57;;;;;;;8.32;2.72;;;;;;;;;;5050857;28;20021;-76
2023/06/08 13:17:26;;;;;;;6.05;2.83;;;;;;;;;;5051319;28;20029;-75
2023/06/08 13:19:55;;;;;;;7.80;2.58;;;;;;;;;;5051390;28;20024;-76
2023/06/08 13:22:21;;;;;;;7.13;2.70;;;;;;;;;;5050502;28;20029;-76
2023/06/08 13:24:47;;;;;;;3.88;2.47;;;;;;;;;;5050237;28;20033;-75
2023/06/08 13:27:13;;;;;;;4.88;2.70;;;;;;;;;;5049184;28;20032;-76
2023/06/08 13:29:40;;;;;;;6.75;3.00;;;;;;;;;;5050101;28;20036;-76
2023/06/08 13:32:09;;;;;;;3.65;2.40;;;;;;;;;;5050893;28;20021;-76
2023/06/08 13:34:35;;;;;;;6.22;2.60;;;;;;;;;;5050594;28;20095;-75
2023/06/08 13:37:01;;;;;;;5.00;2.42;;;;;;;;;;5050824;28;20029;-75
2023/06/08 13:39:27;;;;;;;5.13;2.70;;;;;;;;;;5049922;28;20063;-76
2023/06/08 13:41:53;;;;;;;4.85;2.70;;;;;;;;;;5049826;28;20065;-76
2023/06/08 13:44:18;;;;;;;4.80;2.40;;;;;;;;;;5048567;28;20453;-76
2023/06/08 13:46:44;;;;;;;5.13;2.70;;;;;;;;;;5050193;28;20021;-76
2023/06/08 13:49:09;;;;;;;6.10;2.70;;;;;;;;;;5049917;28;20032;-76
2023/06/08 13:51:36;;;;;;;5.28;2.53;;;;;;;;;;5049575;28;20531;-76
2023/06/08 13:54:01;;;;;;;5.85;2.58;;;;;;;;;;5049760;28;20170;-75
2023/06/08 13:56:28;;;;;;;5.43;2.58;;;;;;;;;;5050415;28;20109;-75
2023/06/08 13:59:01;;;;;;;5.60;2.47;;;;;;;;;;5049648;28;20040;-76
2023/06/08 14:01:27;;;;;;;5.55;2.55;;;;;;;;;;5049468;28;20021;-75
2023/06/08 14:03:53;;;;;;;4.15;2.40;;;;;;;;;;5049250;28;20021;-75
2023/06/08 14:06:19;;;;;;;6.78;2.42;;;;;;;;;;5049010;28;20032;-73
2023/06/08 14:08:44;;;;;;;6.70;2.47;;;;;;;;;;5049593;28;20029;-75
2023/06/08 14:11:10;;;;;;;5.38;2.60;;;;;;;;;;5049526;28;20473;-74
2023/06/08 14:13:35;;;;;;;7.55;2.58;;;;;;;;;;5049248;28;20074;-75
2023/06/08 14:16:03;;;;;;;4.38;2.40;;;;;;;;;;5049981;28;20518;-75
2023/06/08 14:18:29;;;;;;;6.60;2.75;;;;;;;;;;5050106;28;20036;-75
2023/06/08 14:20:54;;;;;;;6.00;2.30;;;;;;;;;;5049343;28;20025;-75
2023/06/08 14:23:20;;;;;;;6.50;2.38;;;;;;;;;;5047061;28;20464;-76
2023/06/08 14:25:46;;;;;;;9.48;3.80;;;;;;;;;;5049366;28;20104;-75
2023/06/08 14:28:11;;;;;;;7.43;3.40;;;;;;;;;;5049019;28;20020;-76
2023/06/08 14:30:37;;;;;;;9.47;3.80;;;;;;;;;;5048948;28;20044;-76
2023/06/08 14:33:02;;;;;;;7.43;3.88;;;;;;;;;;5048989;28;20256;-76
2023/06/08 14:35:28;;;;;;;9.50;3.90;;;;;;;;;;5049771;28;20114;-76
2023/06/08 14:37:53;;;;;;;7.65;3.70;;;;;;;;;;5051835;28;20043;-76
2023/06/08 14:40:18;;;;;;;7.20;3.83;;;;;;;;;;5048453;28;20500;-76
2023/06/08 14:42:48;;;;;;;5.15;3.28;;;;;;;;;;5049100;28;20291;-76
2023/06/08 14:45:13;;;;;;;7.23;3.43;;;;;;;;;;5048727;28;20025;-74